Time;durP1;ratioP1;P1;durP2;ratioP2;P2;SDS_P1;SDS_P2;PMS_P1;PMS_P2;Temp;Humidity;BMP_temperature;BMP_pressure;BME280_temperature;BME280_humidity;BME280_pressure;Samples;Min_cycle;Max_cycle;Signal;HPM_P1;HPM_P2
2023/12/21 00:01:13;;;;;;;12.83;12.23;;;7.20;1.00;;;;;;4868315;29;20279;-51
2023/12/21 00:03:39;;;;;;;12.77;12.17;;;7.10;1.00;;;;;;4868903;29;20180;-55
2023/12/21 00:06:05;;;;;;;12.60;12.00;;;7.10;1.00;;;;;;4868447;29;20244;-52
2023/12/21 00:08:30;;;;;;;12.77;12.18;;;7.00;1.00;;;;;;4868799;29;20183;-53
2023/12/21 00:10:58;;;;;;;12.70;12.10;;;7.00;1.00;;;;;;4869006;29;20191;-54
2023/12/21 00:13:26;;;;;;;13.00;12.50;;;7.00;1.00;;;;;;4868839;29;20259;-50
2023/12/21 00:15:52;;;;;;;14.00;13.40;;;7.00;1.00;;;;;;4868555;29;20639;-52
2023/12/21 00:18:17;;;;;;;13.80;13.20;;;7.00;1.00;;;;;;4868803;29;20188;-51
2023/12/21 00:20:43;;;;;;;13.90;13.30;;;6.90;9.60;;;;;;4867046;29;20192;-52
2023/12/21 00:23:09;;;;;;;13.90;13.30;;;6.90;12.90;;;;;;4868408;29;20240;-51
2023/12/21 00:25:34;;;;;;;13.70;13.00;;;6.90;14.00;;;;;;4868230;29;20607;-50
2023/12/21 00:28:00;;;;;;;14.03;13.40;;;6.80;26.00;;;;;;4868193;29;20195;-52
2023/12/21 00:30:25;;;;;;;13.50;12.90;;;6.80;24.30;;;;;;4868336;29;20600;-53
2023/12/21 00:32:52;;;;;;;14.53;13.60;;;6.80;37.40;;;;;;4868445;29;20192;-54
2023/12/21 00:35:18;;;;;;;14.00;13.40;;;6.80;39.60;;;;;;4867840;29;20212;-54
2023/12/21 00:37:44;;;;;;;14.00;13.40;;;6.80;31.50;;;;;;4868386;29;20841;-50
2023/12/21 00:40:10;;;;;;;14.20;13.50;;;6.70;51.60;;;;;;4868328;29;20187;-54
2023/12/21 00:42:38;;;;;;;13.90;13.30;;;6.70;58.00;;;;;;4868219;29;20192;-53
2023/12/21 00:45:05;;;;;;;13.70;13.10;;;6.70;46.30;;;;;;4867474;29;20516;-54
2023/12/21 00:47:31;;;;;;;13.80;13.20;;;6.70;36.70;;;;;;4868372;29;20206;-51
2023/12/21 00:49:57;;;;;;;14.20;13.60;;;6.70;27.80;;;;;;4866920;29;20192;-51
2023/12/21 00:52:23;;;;;;;13.77;13.07;;;6.70;50.80;;;;;;4868408;29;20259;-51
2023/12/21 00:54:49;;;;;;;13.60;13.00;;;6.70;59.50;;;;;;4867179;29;20207;-49
2023/12/21 00:57:15;;;;;;;14.05;13.45;;;6.70;61.00;;;;;;4867664;29;20215;-50
2023/12/21 00:59:40;;;;;;;14.00;13.40;;;6.70;60.30;;;;;;4867516;29;20199;-49
2023/12/21 01:02:06;;;;;;;14.00;13.40;;;6.70;53.30;;;;;;4868114;29;20446;-51
2023/12/21 01:04:31;;;;;;;13.83;13.23;;;6.70;52.00;;;;;;4868131;29;20191;-49
2023/12/21 01:06:57;;;;;;;13.80;13.10;;;6.70;50.10;;;;;;4867840;29;20563;-49
2023/12/21 01:09:23;;;;;;;13.90;13.30;;;6.70;27.50;;;;;;4868185;29;20294;-52
2023/12/21 01:11:48;;;;;;;13.80;13.20;;;6.80;31.50;;;;;;4867270;29;20200;-49
2023/12/21 01:14:14;;;;;;;14.10;13.50;;;6.80;36.10;;;;;;4866263;29;20351;-48
2023/12/21 01:16:39;;;;;;;14.00;13.40;;;6.80;30.00;;;;;;4867684;29;20222;-47
2023/12/21 01:19:05;;;;;;;14.00;13.40;;;6.90;35.30;;;;;;4867614;29;20659;-53
2023/12/21 01:21:30;;;;;;;13.60;13.10;;;6.90;9.20;;;;;;4867901;29;20199;-49
2023/12/21 01:23:56;;;;;;;13.43;12.83;;;7.00;15.10;;;;;;4875183;29;20180;-50
2023/12/21 01:26:21;;;;;;;13.00;12.50;;;7.00;8.90;;;;;;4867539;29;20718;-48
2023/12/21 01:28:47;;;;;;;13.60;13.00;;;7.00;14.30;;;;;;4867557;29;20202;-49
2023/12/21 01:31:13;;;;;;;13.07;12.57;;;7.20;1.00;;;;;;4867795;29;20946;-52
2023/12/21 01:33:38;;;;;;;12.83;12.33;;;7.20;1.00;;;;;;4867562;29;20581;-53
2023/12/21 01:36:10;;;;;;;12.23;11.73;;;7.30;1.00;;;;;;4867310;29;20366;-50
2023/12/21 01:38:35;;;;;;;12.00;11.50;;;7.30;1.00;;;;;;4866937;29;20258;-54
2023/12/21 01:41:01;;;;;;;11.67;11.17;;;7.40;1.00;;;;;;4866596;29;20440;-43
2023/12/21 01:43:27;;;;;;;11.70;11.20;;;7.50;1.00;;;;;;4867351;29;21342;-45
2023/12/21 01:45:54;;;;;;;11.70;11.20;;;7.50;1.00;;;;;;4866325;29;20456;-44
2023/12/21 01:48:21;;;;;;;11.70;11.20;;;7.50;1.00;;;;;;4867165;29;20192;-44
2023/12/21 01:50:47;;;;;;;11.30;10.90;;;7.60;1.00;;;;;;4865690;29;20857;-42
2023/12/21 01:53:15;;;;;;;11.30;10.90;;;7.70;1.00;;;;;;4866846;29;20432;-44
2023/12/21 01:55:42;;;;;;;11.15;10.75;;;7.70;1.00;;;;;;4867212;29;20463;-42
2023/12/21 01:58:09;;;;;;;11.30;10.90;;;7.70;1.00;;;;;;4866701;29;20180;-43
2023/12/21 02:00:34;;;;;;;11.53;11.10;;;7.70;1.00;;;;;;4866506;29;20529;-45
2023/12/21 02:03:00;;;;;;;11.00;10.60;;;7.70;1.00;;;;;;4866955;29;20479;-43
2023/12/21 02:05:26;;;;;;;11.15;10.75;;;7.80;1.00;;;;;;4866905;29;20192;-43
2023/12/21 02:07:52;;;;;;;11.30;10.80;;;7.80;1.00;;;;;;4866226;29;20203;-45
2023/12/21 02:10:18;;;;;;;11.37;10.87;;;7.80;1.00;;;;;;4866756;29;20263;-43
2023/12/21 02:12:44;;;;;;;11.60;11.10;;;7.80;1.00;;;;;;4867081;29;20271;-43
2023/12/21 02:15:10;;;;;;;11.77;11.37;;;7.80;1.00;;;;;;4867016;29;20529;-43
2023/12/21 02:17:37;;;;;;;12.00;11.50;;;7.80;1.00;;;;;;4866553;29;20845;-47
2023/12/21 02:20:05;;;;;;;12.47;11.77;;;7.70;1.00;;;;;;4866844;29;20191;-51
2023/12/21 02:22:34;;;;;;;12.20;11.70;;;7.70;1.00;;;;;;4866200;29;20452;-53
2023/12/21 02:25:00;;;;;;;12.50;12.00;;;7.60;1.00;;;;;;4877387;29;20488;-50
2023/12/21 02:27:26;;;;;;;12.90;12.40;;;7.60;1.00;;;;;;4866740;29;20457;-52
2023/12/21 02:29:52;;;;;;;13.30;12.80;;;7.50;1.00;;;;;;4867053;29;20224;-51
2023/12/21 02:32:17;;;;;;;13.17;12.63;;;7.50;1.00;;;;;;4867209;29;20180;-52
2023/12/21 02:34:43;;;;;;;13.10;12.60;;;7.50;1.00;;;;;;4866790;29;20223;-53
2023/12/21 02:37:08;;;;;;;13.50;13.00;;;7.50;1.00;;;;;;4866951;29;20207;-54
2023/12/21 02:39:34;;;;;;;13.47;12.93;;;7.40;3.30;;;;;;4867146;29;20857;-53
2023/12/21 02:41:59;;;;;;;13.70;13.10;;;7.40;1.00;;;;;;4866225;29;20184;-50
2023/12/21 02:44:25;;;;;;;13.17;12.67;;;7.50;1.00;;;;;;4866275;29;20231;-50
2023/12/21 02:46:51;;;;;;;13.50;12.90;;;7.50;6.40;;;;;;4866925;29;20192;-51
2023/12/21 02:49:16;;;;;;;13.70;13.10;;;7.50;1.00;;;;;;4866769;29;20208;-53
2023/12/21 02:51:42;;;;;;;13.63;13.13;;;7.50;1.00;;;;;;4866776;29;20219;-51
2023/12/21 02:54:07;;;;;;;13.70;13.20;;;7.50;5.40;;;;;;4866892;29;20199;-53
2023/12/21 02:56:33;;;;;;;14.53;13.93;;;7.40;15.10;;;;;;4866910;29;20216;-51
2023/12/21 02:58:58;;;;;;;14.20;13.60;;;7.50;1.00;;;;;;4867296;29;20184;-51
2023/12/21 03:01:24;;;;;;;14.20;13.60;;;7.50;15.30;;;;;;4870094;29;20219;-53
2023/12/21 03:03:51;;;;;;;14.60;14.00;;;7.50;7.20;;;;;;4869863;29;20203;-53
2023/12/21 03:06:17;;;;;;;15.00;14.30;;;7.40;8.10;;;;;;4864132;29;21088;-51
2023/12/21 03:08:43;;;;;;;14.93;14.33;;;7.40;12.30;;;;;;4869939;29;20196;-52
2023/12/21 03:11:08;;;;;;;14.50;13.90;;;7.40;35.10;;;;;;4869991;29;20226;-51
2023/12/21 03:13:34;;;;;;;14.67;14.07;;;7.30;49.40;;;;;;4869343;29;20225;-51
2023/12/21 03:16:04;;;;;;;14.00;13.40;;;7.20;56.40;;;;;;4870331;29;20227;-52
2023/12/21 03:18:30;;;;;;;14.40;13.80;;;7.20;47.90;;;;;;4869925;29;20644;-49
2023/12/21 03:20:55;;;;;;;13.80;13.20;;;7.20;57.10;;;;;;4869899;29;20188;-46
2023/12/21 03:23:21;;;;;;;14.03;13.40;;;7.10;84.20;;;;;;4870013;29;20195;-45
2023/12/21 03:25:46;;;;;;;13.73;13.13;;;7.10;46.10;;;;;;4869626;29;20227;-49
2023/12/21 03:28:14;;;;;;;13.87;13.27;;;7.10;83.80;;;;;;4870196;29;20190;-49
2023/12/21 03:30:40;;;;;;;13.63;13.02;;;7.10;64.90;;;;;;4868844;29;20543;-46
2023/12/21 03:33:05;;;;;;;13.10;12.60;;;7.10;55.10;;;;;;4869729;29;20203;-44
2023/12/21 03:35:31;;;;;;;13.50;12.97;;;7.20;37.00;;;;;;4869386;29;20467;-44
2023/12/21 03:37:56;;;;;;;13.57;13.03;;;7.20;48.40;;;;;;4869431;29;20203;-48
2023/12/21 03:40:22;;;;;;;13.70;13.10;;;7.20;25.30;;;;;;4870253;29;20188;-46
2023/12/21 03:42:52;;;;;;;12.90;12.40;;;7.20;39.50;;;;;;4869624;29;20199;-43
2023/12/21 03:45:18;;;;;;;13.00;12.50;;;7.20;32.60;;;;;;4869126;29;20172;-44
2023/12/21 03:47:44;;;;;;;12.93;12.43;;;7.30;22.20;;;;;;4868896;29;20311;-44
2023/12/21 03:50:11;;;;;;;12.13;11.63;;;7.30;28.70;;;;;;4869946;29;21015;-45
2023/12/21 03:52:36;;;;;;;12.30;11.80;;;7.30;15.50;;;;;;4869539;29;20510;-45
2023/12/21 03:55:02;;;;;;;12.63;12.03;;;7.30;28.90;;;;;;4869061;29;20792;-44
2023/12/21 03:57:27;;;;;;;12.67;12.17;;;7.40;17.10;;;;;;4869538;29;20222;-44
2023/12/21 03:59:53;;;;;;;11.70;11.30;;;7.40;14.00;;;;;;4868724;29;20200;-44
2023/12/21 04:02:19;;;;;;;10.97;10.57;;;7.40;15.80;;;;;;4869426;29;20203;-45
2023/12/21 04:04:44;;;;;;;11.57;11.07;;;7.50;9.80;;;;;;4869390;29;20199;-44
2023/12/21 04:07:10;;;;;;;11.17;10.77;;;7.60;1.00;;;;;;4869251;29;20243;-43
2023/12/21 04:09:35;;;;;;;11.33;10.93;;;7.70;1.00;;;;;;4868867;29;20180;-45
2023/12/21 04:12:01;;;;;;;11.60;11.10;;;7.70;1.00;;;;;;4869429;29;20188;-45
2023/12/21 04:14:26;;;;;;;11.13;10.37;;;7.70;1.00;;;;;;4868266;29;20196;-45
2023/12/21 04:16:52;;;;;;;11.57;11.17;;;7.70;1.00;;;;;;4869294;29;20333;-44
2023/12/21 04:19:18;;;;;;;11.30;10.90;;;7.80;1.00;;;;;;4869093;29;20223;-45
2023/12/21 04:21:44;;;;;;;10.70;10.30;;;7.90;1.00;;;;;;4869009;29;20196;-46
2023/12/21 04:24:10;;;;;;;11.00;10.60;;;7.90;1.00;;;;;;4868934;29;20791;-43
2023/12/21 04:26:35;;;;;;;11.60;11.10;;;7.90;1.00;;;;;;4868920;29;20428;-44
2023/12/21 04:29:01;;;;;;;10.60;10.20;;;8.00;1.00;;;;;;4869272;29;20227;-42
2023/12/21 04:31:27;;;;;;;10.70;10.30;;;8.00;1.00;;;;;;4868975;29;20184;-45
2023/12/21 04:33:52;;;;;;;11.10;10.70;;;8.00;1.00;;;;;;4868907;29;20271;-44
2023/12/21 04:36:19;;;;;;;11.10;10.70;;;8.10;1.00;;;;;;4868967;29;20219;-44
2023/12/21 04:38:45;;;;;;;11.13;10.73;;;8.10;1.00;;;;;;4868638;29;20203;-44
2023/12/21 04:41:10;;;;;;;10.50;10.10;;;8.10;1.00;;;;;;4868575;29;20923;-43
2023/12/21 04:43:36;;;;;;;10.60;10.20;;;8.10;1.00;;;;;;4868494;29;20323;-43
2023/12/21 04:46:03;;;;;;;10.90;10.50;;;8.10;1.00;;;;;;4868543;29;20644;-43
2023/12/21 04:48:29;;;;;;;11.03;10.63;;;8.10;1.00;;;;;;4868806;29;20442;-43
2023/12/21 04:50:55;;;;;;;11.17;10.77;;;8.10;1.00;;;;;;4868273;29;20432;-44
2023/12/21 04:53:21;;;;;;;11.10;10.70;;;8.10;1.00;;;;;;4868334;29;20191;-45
2023/12/21 04:55:48;;;;;;;11.13;10.73;;;8.00;1.00;;;;;;4867863;29;20487;-47
2023/12/21 04:58:14;;;;;;;10.40;10.00;;;8.10;1.00;;;;;;4868135;29;20203;-43
2023/12/21 05:00:40;;;;;;;10.30;9.90;;;8.20;1.00;;;;;;4867940;29;20436;-43
2023/12/21 05:03:06;;;;;;;10.77;10.37;;;8.10;1.00;;;;;;4868118;29;20192;-46
2023/12/21 05:05:32;;;;;;;10.77;10.37;;;8.20;1.00;;;;;;4868188;29;21095;-43
2023/12/21 05:07:57;;;;;;;9.53;9.20;;;8.20;1.00;;;;;;4868119;29;20425;-44
2023/12/21 05:10:23;;;;;;;10.10;9.70;;;8.20;1.00;;;;;;4867966;29;20998;-43
2023/12/21 05:12:50;;;;;;;10.20;9.80;;;8.20;1.00;;;;;;4868238;29;20584;-52
2023/12/21 05:15:16;;;;;;;10.57;10.17;;;8.20;1.00;;;;;;4866940;29;20200;-48
2023/12/21 05:17:41;;;;;;;10.30;9.90;;;8.20;1.00;;;;;;4867922;29;20440;-49
2023/12/21 05:20:07;;;;;;;9.17;8.70;;;8.30;1.00;;;;;;4867308;29;20191;-53
2023/12/21 05:22:33;;;;;;;10.50;10.10;;;8.30;1.00;;;;;;4866731;29;20194;-53
2023/12/21 05:24:59;;;;;;;10.10;9.70;;;8.20;1.00;;;;;;4866197;29;20436;-47
2023/12/21 05:27:25;;;;;;;10.30;9.90;;;8.20;1.00;;;;;;4867647;29;20563;-45
2023/12/21 05:29:51;;;;;;;9.90;9.50;;;8.20;1.00;;;;;;4866218;29;21136;-48
2023/12/21 05:32:17;;;;;;;10.23;9.83;;;8.20;1.00;;;;;;4867880;29;20435;-54
2023/12/21 05:34:42;;;;;;;9.90;9.50;;;8.30;1.00;;;;;;4867341;29;20503;-49
2023/12/21 05:37:08;;;;;;;10.50;10.10;;;8.20;1.00;;;;;;4865991;29;20200;-50
2023/12/21 05:39:35;;;;;;;10.07;9.67;;;8.20;1.00;;;;;;4869823;29;20207;-52
2023/12/21 05:42:01;;;;;;;10.03;9.63;;;8.20;1.00;;;;;;4867513;29;20227;-44
2023/12/21 05:44:26;;;;;;;10.53;10.13;;;8.20;1.00;;;;;;4867513;29;20468;-44
2023/12/21 05:46:52;;;;;;;9.77;9.37;;;8.20;1.00;;;;;;4866977;29;20208;-44
2023/12/21 05:49:17;;;;;;;10.50;10.10;;;8.20;1.00;;;;;;4867599;29;20203;-43
2023/12/21 05:51:43;;;;;;;10.60;10.20;;;8.20;1.00;;;;;;4867100;29;20207;-47
2023/12/21 05:54:09;;;;;;;11.03;10.63;;;8.20;1.00;;;;;;4866892;29;20191;-51
2023/12/21 05:56:37;;;;;;;9.93;9.53;;;8.10;1.00;;;;;;4867026;29;20703;-52
2023/12/21 05:59:03;;;;;;;11.20;10.80;;;8.10;1.00;;;;;;4867028;29;20206;-53
2023/12/21 06:01:29;;;;;;;10.37;9.97;;;8.10;1.00;;;;;;4867257;29;20915;-53
2023/12/21 06:03:55;;;;;;;10.37;9.97;;;8.20;1.00;;;;;;4867505;29;20438;-51
2023/12/21 06:06:20;;;;;;;10.23;9.83;;;8.10;1.00;;;;;;4867257;29;20284;-53
2023/12/21 06:08:47;;;;;;;9.60;9.27;;;8.00;8.60;;;;;;4866801;29;20203;-51
2023/12/21 06:11:12;;;;;;;10.10;9.70;;;8.00;13.40;;;;;;4867184;29;20899;-54
2023/12/21 06:13:38;;;;;;;10.70;10.30;;;7.90;15.00;;;;;;4867159;29;20439;-54
2023/12/21 06:16:04;;;;;;;10.07;9.67;;;8.00;16.50;;;;;;4867353;29;20234;-50
2023/12/21 06:18:30;;;;;;;10.40;10.00;;;7.90;27.50;;;;;;4866812;29;20183;-49
2023/12/21 06:20:55;;;;;;;10.20;9.80;;;7.90;32.90;;;;;;4866974;29;20809;-50
2023/12/21 06:23:21;;;;;;;9.60;9.20;;;7.90;30.00;;;;;;4867128;29;20219;-50
2023/12/21 06:25:46;;;;;;;9.70;9.40;;;7.90;31.70;;;;;;4867119;29;20191;-53
2023/12/21 06:28:12;;;;;;;9.70;9.33;;;7.90;47.60;;;;;;4867124;29;20264;-50
2023/12/21 06:30:38;;;;;;;8.40;8.10;;;7.80;41.40;;;;;;4866819;29;20298;-52
2023/12/21 06:33:03;;;;;;;9.67;9.27;;;7.80;62.10;;;;;;4867850;29;20207;-51
2023/12/21 06:35:29;;;;;;;9.00;8.70;;;7.80;53.40;;;;;;4870763;29;20211;-52
2023/12/21 06:37:54;;;;;;;8.70;8.40;;;7.80;43.80;;;;;;4870529;29;20330;-53
2023/12/21 06:40:20;;;;;;;9.13;8.83;;;7.80;48.60;;;;;;4870712;29;20180;-49
2023/12/21 06:42:46;;;;;;;9.30;8.90;;;7.80;36.50;;;;;;4870472;29;20188;-53
2023/12/21 06:45:11;;;;;;;9.10;8.80;;;7.80;43.40;;;;;;4870766;29;20703;-48
2023/12/21 06:47:37;;;;;;;9.90;9.50;;;7.90;35.70;;;;;;4870339;29;20188;-48
2023/12/21 06:50:04;;;;;;;9.27;8.87;;;7.90;19.10;;;;;;4870476;29;20255;-53
2023/12/21 06:52:30;;;;;;;8.93;8.60;;;7.90;20.90;;;;;;4870680;29;20192;-49
2023/12/21 06:54:57;;;;;;;9.57;9.17;;;8.00;23.10;;;;;;4870235;29;20426;-51
2023/12/21 06:57:23;;;;;;;9.27;8.87;;;7.90;29.00;;;;;;4870745;29;20212;-53
2023/12/21 06:59:48;;;;;;;8.43;8.13;;;7.90;32.20;;;;;;4870201;29;20426;-52
2023/12/21 07:02:14;;;;;;;9.50;9.10;;;7.90;30.10;;;;;;4870414;29;20428;-53
2023/12/21 07:04:40;;;;;;;10.00;9.60;;;7.90;23.50;;;;;;4870052;29;20192;-49
2023/12/21 07:07:06;;;;;;;9.23;8.87;;;7.90;27.60;;;;;;4869898;29;20200;-52
2023/12/21 07:09:32;;;;;;;9.13;8.83;;;7.90;37.40;;;;;;4868757;29;20192;-50
2023/12/21 07:11:59;;;;;;;8.63;8.33;;;7.90;28.70;;;;;;4864652;29;20447;-50
2023/12/21 07:14:25;;;;;;;9.63;9.23;;;7.90;39.60;;;;;;4867716;29;20188;-49
2023/12/21 07:16:50;;;;;;;10.10;9.70;;;7.90;35.00;;;;;;4867026;29;20464;-50
2023/12/21 07:19:16;;;;;;;9.53;9.17;;;7.90;47.50;;;;;;4867230;29;20643;-50
2023/12/21 07:21:42;;;;;;;9.80;9.43;;;7.90;44.20;;;;;;4865438;29;20191;-54
2023/12/21 07:24:07;;;;;;;10.20;9.80;;;7.80;42.80;;;;;;4867122;29;20188;-49
2023/12/21 07:26:33;;;;;;;9.73;9.33;;;7.90;48.30;;;;;;4867492;29;20542;-52
2023/12/21 07:28:58;;;;;;;10.07;9.67;;;7.90;40.30;;;;;;4868973;29;20199;-49
2023/12/21 07:31:24;;;;;;;9.00;8.70;;;7.90;38.20;;;;;;4868059;29;20239;-54
2023/12/21 07:33:51;;;;;;;9.10;8.80;;;8.00;25.50;;;;;;4869738;29;20207;-52
2023/12/21 07:36:16;;;;;;;9.73;9.33;;;8.10;22.90;;;;;;4869280;29;20216;-52
2023/12/21 07:38:42;;;;;;;10.30;9.90;;;8.10;17.50;;;;;;4867918;29;20439;-49
2023/12/21 07:41:08;;;;;;;10.00;9.60;;;8.10;1.40;;;;;;4865376;29;20620;-52
2023/12/21 07:43:34;;;;;;;10.00;9.60;;;8.20;1.00;;;;;;4867305;29;21247;-50
2023/12/21 07:45:59;;;;;;;9.93;9.53;;;8.30;1.00;;;;;;4867439;29;20420;-49
2023/12/21 07:48:25;;;;;;;9.47;9.07;;;8.30;1.00;;;;;;4867686;29;20199;-52
2023/12/21 07:50:51;;;;;;;9.53;9.13;;;8.40;1.00;;;;;;4867677;29;20214;-49
2023/12/21 07:53:16;;;;;;;9.50;9.10;;;8.50;1.00;;;;;;4867840;29;20199;-51
2023/12/21 07:55:43;;;;;;;10.00;9.60;;;8.50;1.00;;;;;;4867814;29;20330;-45
2023/12/21 07:58:08;;;;;;;9.97;9.57;;;8.50;1.00;;;;;;4867262;29;20421;-44
2023/12/21 08:00:34;;;;;;;8.97;8.67;;;8.50;1.00;;;;;;4866865;29;20436;-45
2023/12/21 08:03:00;;;;;;;9.50;9.10;;;8.70;1.00;;;;;;4866367;29;20270;-53
2023/12/21 08:05:27;;;;;;;9.43;9.10;;;8.70;1.00;;;;;;4867166;29;20199;-54
2023/12/21 08:07:53;;;;;;;9.80;9.40;;;8.80;1.00;;;;;;4865444;29;20496;-53
2023/12/21 08:10:18;;;;;;;9.80;9.40;;;8.80;1.00;;;;;;4866453;29;20463;-44
2023/12/21 08:12:46;;;;;;;9.63;9.23;;;8.70;1.00;;;;;;4866405;29;20629;-47
2023/12/21 08:15:12;;;;;;;8.63;8.33;;;8.80;1.00;;;;;;4867398;29;20188;-45
2023/12/21 08:17:39;;;;;;;9.40;9.10;;;8.90;1.00;;;;;;4869395;29;20445;-45
2023/12/21 08:20:04;;;;;;;9.77;9.37;;;8.90;1.00;;;;;;4869115;29;20235;-44
2023/12/21 08:22:31;;;;;;;9.70;9.30;;;8.90;1.00;;;;;;4868917;29;20548;-44
2023/12/21 08:24:57;;;;;;;10.07;9.67;;;9.00;1.00;;;;;;4869406;29;20511;-46
2023/12/21 08:27:23;;;;;;;9.67;9.17;;;9.00;1.00;;;;;;4868839;29;20528;-43
2023/12/21 08:29:50;;;;;;;9.77;9.37;;;9.10;1.00;;;;;;4867803;29;20492;-45
2023/12/21 08:32:16;;;;;;;9.40;9.10;;;9.10;1.00;;;;;;4866221;29;20439;-44
2023/12/21 08:34:42;;;;;;;9.60;9.20;;;9.10;1.00;;;;;;4867156;29;20471;-43
2023/12/21 08:37:09;;;;;;;10.60;10.10;;;9.10;1.00;;;;;;4867509;29;20970;-44
2023/12/21 08:39:35;;;;;;;10.00;9.60;;;9.20;1.00;;;;;;4866753;29;20845;-43
2023/12/21 08:42:01;;;;;;;9.67;9.33;;;9.20;1.00;;;;;;4866310;29;20425;-43
2023/12/21 08:44:27;;;;;;;9.80;9.40;;;9.20;1.00;;;;;;4866259;29;20263;-45
2023/12/21 08:46:53;;;;;;;10.10;9.70;;;9.20;1.00;;;;;;4865805;29;20429;-52
2023/12/21 08:49:19;;;;;;;9.90;9.50;;;9.30;1.00;;;;;;4865661;29;20884;-45
2023/12/21 08:51:44;;;;;;;10.50;10.10;;;9.30;1.00;;;;;;4865187;29;20190;-44
2023/12/21 08:54:10;;;;;;;10.20;9.80;;;9.40;1.00;;;;;;4865750;29;20307;-44
2023/12/21 08:56:42;;;;;;;9.40;9.10;;;9.30;1.00;;;;;;4865609;29;20287;-42
2023/12/21 08:59:08;;;;;;;9.63;9.23;;;9.20;1.00;;;;;;4866568;29;20424;-46
2023/12/21 09:01:33;;;;;;;9.37;9.07;;;9.30;1.00;;;;;;4867180;29;20435;-43
2023/12/21 09:04:00;;;;;;;9.93;9.53;;;9.30;1.00;;;;;;4867248;29;20203;-45
2023/12/21 09:06:26;;;;;;;10.13;9.73;;;9.40;1.00;;;;;;4866859;29;20278;-43
2023/12/21 09:08:52;;;;;;;10.40;9.93;;;9.40;1.00;;;;;;4867163;29;20982;-49
2023/12/21 09:11:17;;;;;;;9.90;9.50;;;9.40;1.00;;;;;;4867115;29;20279;-46
2023/12/21 09:13:43;;;;;;;9.80;9.40;;;9.40;1.00;;;;;;4867007;29;20834;-44
2023/12/21 09:16:09;;;;;;;10.30;9.90;;;9.40;1.00;;;;;;4867078;29;20227;-44
2023/12/21 09:18:34;;;;;;;9.37;9.00;;;9.40;1.00;;;;;;4867308;29;20544;-43
2023/12/21 09:21:01;;;;;;;10.20;9.80;;;9.40;1.00;;;;;;4866998;29;20283;-46
2023/12/21 09:23:27;;;;;;;9.77;9.37;;;9.50;1.00;;;;;;4866822;29;20210;-47
2023/12/21 09:25:52;;;;;;;9.50;9.20;;;9.50;1.00;;;;;;4866967;29;20428;-43
2023/12/21 09:28:18;;;;;;;10.20;9.80;;;9.50;1.00;;;;;;4866443;29;20188;-44
2023/12/21 09:30:44;;;;;;;10.03;9.63;;;9.50;1.00;;;;;;4867306;29;20203;-43
2023/12/21 09:33:11;;;;;;;9.97;9.57;;;9.50;1.00;;;;;;4867203;29;20211;-42
2023/12/21 09:35:36;;;;;;;10.00;9.60;;;9.50;1.00;;;;;;4866316;29;20562;-45
2023/12/21 09:38:02;;;;;;;9.87;9.47;;;9.50;1.00;;;;;;4866759;29;20471;-43
2023/12/21 09:40:29;;;;;;;9.43;9.13;;;9.60;1.00;;;;;;4865387;29;20195;-43
2023/12/21 09:42:57;;;;;;;10.07;9.67;;;9.70;1.00;;;;;;4866268;29;20480;-44
2023/12/21 09:45:24;;;;;;;9.37;9.07;;;9.70;1.00;;;;;;4866822;29;20532;-44
2023/12/21 09:47:51;;;;;;;9.83;9.43;;;9.70;1.00;;;;;;4866742;29;20429;-44
2023/12/21 09:50:18;;;;;;;10.20;9.80;;;9.80;1.00;;;;;;4880529;29;20508;-45
2023/12/21 09:52:44;;;;;;;9.93;9.53;;;9.90;1.00;;;;;;4866139;29;20417;-45
2023/12/21 09:55:11;;;;;;;9.70;9.30;;;9.90;1.00;;;;;;4866351;29;20955;-44
2023/12/21 09:57:37;;;;;;;10.70;10.30;;;9.90;1.00;;;;;;4866104;29;20472;-46
2023/12/21 10:00:04;;;;;;;9.90;9.50;;;9.90;1.00;;;;;;4865994;29;20940;-43
2023/12/21 10:02:31;;;;;;;10.33;9.93;;;10.00;99.90;;;;;;4866235;29;20752;-46
2023/12/21 10:04:58;;;;;;;10.50;10.10;;;10.00;99.90;;;;;;4866936;29;20560;-44
2023/12/21 10:07:25;;;;;;;9.27;8.97;;;10.00;99.90;;;;;;4866089;29;20439;-45
2023/12/21 10:09:50;;;;;;;10.30;9.90;;;10.10;99.90;;;;;;4866122;29;20431;-45
2023/12/21 10:12:16;;;;;;;9.93;9.53;;;10.10;99.90;;;;;;4866086;29;20439;-48
2023/12/21 10:14:43;;;;;;;10.30;9.90;;;10.10;99.90;;;;;;4866111;29;20251;-44
2023/12/21 10:17:12;;;;;;;11.00;10.60;;;10.20;99.90;;;;;;4866417;29;20207;-45
2023/12/21 10:19:43;;;;;;;10.80;10.40;;;10.10;99.90;;;;;;4866243;29;20976;-45
2023/12/21 10:22:09;;;;;;;10.53;10.13;;;10.00;1.00;;;;;;4879627;29;20424;-47
2023/12/21 10:24:37;;;;;;;11.03;10.63;;;10.00;1.00;;;;;;4866017;29;20427;-44
2023/12/21 10:27:03;;;;;;;10.80;10.40;;;9.90;1.00;;;;;;4866267;29;20241;-45
2023/12/21 10:29:29;;;;;;;10.53;10.13;;;9.80;1.00;;;;;;4866384;29;20869;-47
2023/12/21 10:31:56;;;;;;;10.90;10.40;;;9.90;1.00;;;;;;4866153;29;20440;-42
2023/12/21 10:34:22;;;;;;;11.23;10.83;;;9.80;1.00;;;;;;4865865;29;20433;-44
2023/12/21 10:36:48;;;;;;;10.77;10.37;;;9.90;1.00;;;;;;4866407;29;20475;-44
2023/12/21 10:39:15;;;;;;;9.97;9.57;;;9.90;1.00;;;;;;4865862;29;20432;-44
2023/12/21 10:41:44;;;;;;;10.40;10.00;;;9.90;1.00;;;;;;4864850;29;20233;-43
2023/12/21 10:44:12;;;;;;;9.17;8.87;;;10.00;1.00;;;;;;4865878;29;20503;-48
2023/12/21 10:46:38;;;;;;;10.30;9.90;;;10.10;1.00;;;;;;4866240;29;20903;-46
2023/12/21 10:49:06;;;;;;;10.60;10.20;;;10.10;1.00;;;;;;4865877;29;20451;-43
2023/12/21 10:51:35;;;;;;;10.40;10.00;;;10.00;1.00;;;;;;4865815;29;20496;-43
2023/12/21 10:54:02;;;;;;;10.63;10.23;;;10.20;99.90;;;;;;4865485;29;20468;-46
2023/12/21 10:56:28;;;;;;;10.03;9.63;;;10.20;99.90;;;;;;4866105;29;20479;-49
2023/12/21 10:58:55;;;;;;;9.30;9.00;;;10.20;99.90;;;;;;4866089;29;20432;-54
2023/12/21 11:01:24;;;;;;;10.10;9.70;;;10.30;99.90;;;;;;4866084;29;20434;-51
2023/12/21 11:03:52;;;;;;;10.30;9.90;;;10.20;1.00;;;;;;4865751;29;20448;-54
2023/12/21 11:06:19;;;;;;;11.00;10.60;;;10.10;1.00;;;;;;4865685;29;20532;-49
2023/12/21 11:08:45;;;;;;;9.60;9.30;;;9.90;1.00;;;;;;4866051;29;20420;-52
2023/12/21 11:11:18;;;;;;;11.10;10.70;;;9.90;1.00;;;;;;4865388;29;20428;-48
2023/12/21 11:13:46;;;;;;;10.50;10.10;;;9.80;1.00;;;;;;4866230;29;20416;-50
2023/12/21 11:16:13;;;;;;;10.90;10.50;;;9.70;1.00;;;;;;4866309;29;20483;-51
2023/12/21 11:18:43;;;;;;;9.67;9.27;;;9.60;1.00;;;;;;4865967;29;20459;-51
2023/12/21 11:21:11;;;;;;;11.17;10.70;;;9.60;1.00;;;;;;4868007;29;20432;-50
2023/12/21 11:23:44;;;;;;;11.30;10.90;;;9.50;1.00;;;;;;4869169;29;20447;-48
2023/12/21 11:26:10;;;;;;;11.07;10.67;;;9.50;1.00;;;;;;4868862;29;20432;-51
2023/12/21 11:28:37;;;;;;;9.87;9.50;;;9.50;1.00;;;;;;4869042;29;20455;-44
2023/12/21 11:31:15;;;;;;;10.70;10.30;;;9.60;1.00;;;;;;4867763;29;20546;-44
2023/12/21 11:33:41;;;;;;;11.87;11.37;;;9.50;1.00;;;;;;4869377;29;20534;-46
2023/12/21 11:36:08;;;;;;;12.60;12.10;;;9.50;1.00;;;;;;4868810;29;21004;-46
2023/12/21 11:38:46;;;;;;;12.40;11.90;;;9.40;1.00;;;;;;4868965;29;20979;-44
2023/12/21 11:41:14;;;;;;;12.80;12.30;;;9.40;1.00;;;;;;4868704;29;20440;-45
2023/12/21 11:43:40;;;;;;;12.80;12.30;;;9.30;1.00;;;;;;4868555;29;20480;-46
2023/12/21 11:46:11;;;;;;;13.23;12.73;;;9.20;1.00;;;;;;4868290;29;20799;-45
2023/12/21 11:48:39;;;;;;;11.43;11.03;;;9.10;1.00;;;;;;4868803;29;20196;-44
2023/12/21 11:51:06;;;;;;;12.20;11.70;;;9.10;1.00;;;;;;4868386;29;20463;-44
2023/12/21 11:53:34;;;;;;;12.50;12.00;;;9.10;1.00;;;;;;4868736;29;21144;-46
2023/12/21 11:56:00;;;;;;;12.70;12.20;;;9.10;1.00;;;;;;4868458;29;20562;-45
2023/12/21 11:58:26;;;;;;;12.90;12.40;;;9.10;1.00;;;;;;4868816;29;20440;-44
2023/12/21 12:00:53;;;;;;;12.57;12.07;;;9.10;1.00;;;;;;4868281;29;20432;-47
2023/12/21 12:03:21;;;;;;;12.03;11.53;;;9.10;1.00;;;;;;4868391;29;21211;-44
2023/12/21 12:05:53;;;;;;;11.83;11.33;;;9.20;1.00;;;;;;4868543;29;20514;-45
2023/12/21 12:08:23;;;;;;;10.67;10.27;;;9.20;1.00;;;;;;4868840;29;20428;-47
2023/12/21 12:10:53;;;;;;;11.50;11.00;;;9.30;1.00;;;;;;4867791;29;20436;-44
2023/12/21 12:13:19;;;;;;;11.63;11.13;;;9.30;1.00;;;;;;4868202;29;20439;-43
2023/12/21 12:15:48;;;;;;;10.27;9.87;;;9.40;1.00;;;;;;4868133;29;20582;-43
2023/12/21 12:18:19;;;;;;;9.77;9.37;;;9.50;1.00;;;;;;4868446;29;20889;-44
2023/12/21 12:20:47;;;;;;;9.50;9.10;;;9.50;1.00;;;;;;4868187;29;20492;-47
2023/12/21 12:23:13;;;;;;;10.20;9.80;;;9.60;1.00;;;;;;4868080;29;20481;-45
2023/12/21 12:25:39;;;;;;;9.73;9.33;;;9.70;1.00;;;;;;4867908;29;20417;-47
2023/12/21 12:28:05;;;;;;;9.90;9.50;;;9.70;1.00;;;;;;4868018;29;20928;-45
2023/12/21 12:30:31;;;;;;;9.33;9.03;;;9.80;1.00;;;;;;4863877;29;20429;-45
2023/12/21 12:33:02;;;;;;;9.60;9.20;;;9.80;1.00;;;;;;4865808;29;20428;-45
2023/12/21 12:35:28;;;;;;;10.40;10.00;;;9.80;99.90;;;;;;4867672;29;20556;-45
2023/12/21 12:37:54;;;;;;;10.20;9.80;;;9.80;1.00;;;;;;4867364;29;20428;-44
2023/12/21 12:40:22;;;;;;;10.00;9.60;;;9.80;99.90;;;;;;4867664;29;20416;-44
2023/12/21 12:42:48;;;;;;;9.00;8.70;;;9.90;99.90;;;;;;4867525;29;20371;-45
2023/12/21 12:45:15;;;;;;;10.00;9.60;;;9.90;1.00;;;;;;4867619;29;20431;-45